createdAt,value
2019-02-23T00:01:56.767Z,73.00
2019-02-23T00:04:42.836Z,72.30
2019-02-23T00:07:28.998Z,72.10
2019-02-23T00:14:15.177Z,73.30
2019-02-23T00:27:14.635Z,74.10
2019-02-23T00:30:35.200Z,73.80
2019-02-23T00:33:45.970Z,74.50
2019-02-23T00:47:16.726Z,74.50
2019-02-23T00:50:01.954Z,74.30
2019-02-23T00:52:47.415Z,74.30
2019-02-23T00:58:21.343Z,71.30
2019-02-23T01:01:06.879Z,72.60
2019-02-23T01:03:52.255Z,70.90
2019-02-23T01:06:37.356Z,71.40
2019-02-23T01:09:22.653Z,71.70
2019-02-23T01:12:07.978Z,72.30
2019-02-23T01:14:53.252Z,71.60
2019-02-23T01:17:38.371Z,71.20
2019-02-23T01:20:23.931Z,71.60
2019-02-23T01:23:09.023Z,72.80
2019-02-23T01:25:54.830Z,72.40
2019-02-23T01:28:40.057Z,73.70
2019-02-23T01:31:25.286Z,73.90
2019-02-23T01:34:11.584Z,74.90
2019-02-23T01:37:02.954Z,75.80
2019-02-23T01:39:53.420Z,75.90
2019-02-23T01:42:44.660Z,74.40
2019-02-23T01:49:00.428Z,74.80
2019-02-23T01:51:46.338Z,75.60
2019-02-23T01:55:54.380Z,74.90
2019-02-23T01:58:27.602Z,75.20
2019-02-23T02:01:13.901Z,75.50
2019-02-23T02:03:59.183Z,76.20
2019-02-23T02:06:47.245Z,75.50
2019-02-23T02:09:57.715Z,74.50
2019-02-23T02:12:48.593Z,75.30
2019-02-23T02:21:33.844Z,75.60
2019-02-23T02:27:31.412Z,74.90
2019-02-23T02:30:16.343Z,74.90
2019-02-23T02:33:05.316Z,73.70
2019-02-23T02:35:51.229Z,73.40
2019-02-23T02:38:36.352Z,74.30
2019-02-23T02:41:24.324Z,75.40
2019-02-23T02:44:09.480Z,74.70
2019-02-23T02:46:54.955Z,74.90
2019-02-23T02:49:40.310Z,75.50
2019-02-23T02:52:25.830Z,75.50
2019-02-23T02:55:11.369Z,75.10
2019-02-23T02:57:57.365Z,75.80
2019-02-23T03:04:30.028Z,76.40
2019-02-23T03:07:15.025Z,76.80
2019-02-23T03:10:00.786Z,76.10
2019-02-23T03:12:45.732Z,75.90
2019-02-23T03:18:38.393Z,76.60
2019-02-23T03:21:23.355Z,76.60
2019-02-23T03:24:09.694Z,75.80
2019-02-23T03:26:55.205Z,75.80
2019-02-23T03:29:40.305Z,75.10
2019-02-23T03:32:25.736Z,75.20
2019-02-23T03:35:11.486Z,74.90
2019-02-23T03:37:56.860Z,74.80
2019-02-23T03:40:42.064Z,75.60
2019-02-23T03:43:27.385Z,75.80
2019-02-23T03:46:12.465Z,76.00
2019-02-23T03:48:57.404Z,75.50
2019-02-23T03:51:43.258Z,74.80
2019-02-23T03:54:28.964Z,75.50
2019-02-23T03:57:14.180Z,75.60
2019-02-23T03:59:59.451Z,75.30
2019-02-23T04:02:45.097Z,74.20
2019-02-23T04:05:30.327Z,73.60
2019-02-23T04:08:15.819Z,73.30
2019-02-23T04:11:01.015Z,72.50
2019-02-23T04:13:46.143Z,72.60
2019-02-23T04:16:31.494Z,71.90
2019-02-23T04:19:16.944Z,72.90
2019-02-23T04:22:02.115Z,73.80
2019-02-23T04:24:47.366Z,74.60
2019-02-23T04:27:32.733Z,75.10
2019-02-23T04:30:20.877Z,75.80
2019-02-23T04:33:11.951Z,75.50
2019-02-23T04:35:57.279Z,76.70
2019-02-23T04:38:42.670Z,76.50
2019-02-23T04:41:41.290Z,76.30
2019-02-23T04:44:29.289Z,76.40
2019-02-23T04:47:51.226Z,76.90
2019-02-23T04:50:36.890Z,77.40
2019-02-23T04:53:22.552Z,76.80
2019-02-23T04:56:10.119Z,76.10
2019-02-23T04:58:55.447Z,76.00
2019-02-23T05:01:40.602Z,76.10
2019-02-23T05:04:25.797Z,74.70
2019-02-23T05:07:11.393Z,75.80
2019-02-23T05:09:56.339Z,76.40
2019-02-23T05:12:41.782Z,76.30
2019-02-23T05:15:38.341Z,76.50
2019-02-23T05:18:23.463Z,76.70
2019-02-23T05:21:10.848Z,76.10
2019-02-23T05:24:05.826Z,76.80
2019-02-23T05:26:51.036Z,76.70
2019-02-23T05:29:36.110Z,77.10
2019-02-23T05:32:21.378Z,76.30
2019-02-23T05:38:36.160Z,76.60
2019-02-23T05:41:26.882Z,77.70
2019-02-23T05:44:12.365Z,77.50
2019-02-23T05:46:57.371Z,76.70
2019-02-23T05:49:42.814Z,76.90
2019-02-23T05:52:27.949Z,77.80
2019-02-23T05:56:12.778Z,76.80
2019-02-23T05:58:55.698Z,77.20
2019-02-23T06:01:40.650Z,77.80
2019-02-23T06:04:26.763Z,77.70
2019-02-23T06:07:14.225Z,78.30
2019-02-23T06:09:59.281Z,77.80
2019-02-23T06:12:44.119Z,78.40
2019-02-23T06:15:31.459Z,77.80
2019-02-23T06:18:19.916Z,78.10
2019-02-23T06:21:05.476Z,78.50
2019-02-23T06:27:43.818Z,79.00
2019-02-23T06:31:30.336Z,79.30
2019-02-23T06:34:16.720Z,78.30
2019-02-23T06:37:02.899Z,78.70
2019-02-23T06:39:49.093Z,77.70
2019-02-23T06:42:34.539Z,77.60
2019-02-23T06:45:19.836Z,77.60
2019-02-23T06:48:05.054Z,77.10
2019-02-23T06:50:51.269Z,78.20
2019-02-23T06:53:44.629Z,77.80
2019-02-23T06:56:30.247Z,78.70
2019-02-23T07:07:13.227Z,79.00
2019-02-23T07:09:59.633Z,79.30
2019-02-23T07:12:52.437Z,79.30
2019-02-23T07:16:14.103Z,78.60
2019-02-23T07:18:33.657Z,79.00
2019-02-23T07:21:18.949Z,77.60
2019-02-23T07:24:04.143Z,77.80
2019-02-23T07:26:49.214Z,77.80
2019-02-23T07:29:34.520Z,77.00
2019-02-23T07:32:19.722Z,76.50
2019-02-23T07:35:06.190Z,76.30
2019-02-23T07:37:51.520Z,75.50
2019-02-23T07:40:36.762Z,75.90
2019-02-23T07:43:21.837Z,75.00
2019-02-23T07:46:07.455Z,73.80
2019-02-23T07:49:12.572Z,73.20
2019-02-23T07:51:57.791Z,74.30
2019-02-23T07:54:43.030Z,74.20
2019-02-23T07:57:28.662Z,73.30
2019-02-23T08:00:33.549Z,73.20
2019-02-23T08:03:36.827Z,73.10
2019-02-23T08:09:58.057Z,70.70
2019-02-23T08:16:57.912Z,69.60
2019-02-23T08:19:42.725Z,67.10
2019-02-23T08:22:37.031Z,65.30
2019-02-23T08:25:15.387Z,64.20
2019-02-23T08:28:00.316Z,63.80
2019-02-23T08:30:45.686Z,63.00
2019-02-23T08:33:30.988Z,61.90
2019-02-23T08:36:26.704Z,61.20
2019-02-23T08:43:04.414Z,59.20
2019-02-23T08:45:49.408Z,58.80
2019-02-23T08:48:34.471Z,59.60
2019-02-23T08:51:20.164Z,59.60
2019-02-23T08:54:05.372Z,58.30
2019-02-23T08:56:50.619Z,58.20
2019-02-23T08:59:35.718Z,57.90
2019-02-23T09:02:21.238Z,56.80
2019-02-23T09:05:08.777Z,56.40
2019-02-23T09:07:53.783Z,56.90
2019-02-23T09:10:56.255Z,56.70
2019-02-23T09:14:44.765Z,56.00
2019-02-23T09:17:17.819Z,57.00
2019-02-23T09:20:05.754Z,56.70
2019-02-23T09:22:59.710Z,56.00
2019-02-23T09:25:38.116Z,56.60
2019-02-23T09:28:23.102Z,56.70
2019-02-23T09:31:08.121Z,56.50
2019-02-23T09:33:53.516Z,55.10
2019-02-23T09:36:38.776Z,54.90
2019-02-23T09:39:23.943Z,54.30
2019-02-23T09:42:09.286Z,55.30
2019-02-23T09:44:54.488Z,54.60
2019-02-23T09:54:48.655Z,55.60
2019-02-23T09:57:33.752Z,55.70
2019-02-23T10:00:19.092Z,54.40
2019-02-23T10:03:04.643Z,54.30
2019-02-23T10:05:59.702Z,54.30
2019-02-23T10:08:48.351Z,53.90
2019-02-23T10:11:33.312Z,54.40
2019-02-23T10:14:18.710Z,55.60
2019-02-23T10:17:03.930Z,54.60
2019-02-23T10:19:49.063Z,54.20
2019-02-23T10:22:34.201Z,53.50
2019-02-23T10:25:19.426Z,53.80
2019-02-23T10:28:04.219Z,54.60
2019-02-23T10:30:49.774Z,54.60
2019-02-23T10:33:37.109Z,53.40
2019-02-23T10:36:22.279Z,53.30
2019-02-23T10:39:07.508Z,51.10
2019-02-23T10:41:52.583Z,49.10
2019-02-23T10:44:37.874Z,47.20
2019-02-23T10:47:22.997Z,47.50
2019-02-23T10:50:11.626Z,48.30
2019-02-23T10:52:56.711Z,48.00
2019-02-23T10:55:41.695Z,47.10
2019-02-23T10:58:27.185Z,46.50
2019-02-23T11:01:12.160Z,47.80
2019-02-23T11:03:57.356Z,48.40
2019-02-23T11:06:42.689Z,47.30
2019-02-23T11:09:29.943Z,47.80
2019-02-23T11:12:15.483Z,47.20
2019-02-23T11:15:00.464Z,47.60
2019-02-23T11:17:45.874Z,48.80
2019-02-23T11:20:31.681Z,48.60
2019-02-23T11:23:18.108Z,48.00
2019-02-23T11:26:03.295Z,48.00
2019-02-23T11:28:48.302Z,49.10
2019-02-23T11:31:33.691Z,47.80
2019-02-23T11:34:18.838Z,48.30
2019-02-23T11:37:04.190Z,48.80
2019-02-23T11:39:49.446Z,48.40
2019-02-23T11:42:34.918Z,47.60
2019-02-23T11:45:21.244Z,47.50
2019-02-23T11:48:06.628Z,47.60
2019-02-23T11:50:52.084Z,46.20
2019-02-23T11:53:37.143Z,46.80
2019-02-23T11:56:22.358Z,46.20
2019-02-23T11:59:07.835Z,45.50
2019-02-23T12:01:54.377Z,44.70
2019-02-23T12:04:39.596Z,45.00
2019-02-23T12:07:24.717Z,45.30
2019-02-23T12:10:15.207Z,45.80
2019-02-23T12:13:00.587Z,46.30
2019-02-23T12:15:45.709Z,46.40
2019-02-23T12:18:31.217Z,45.90
2019-02-23T12:21:16.330Z,46.80
2019-02-23T12:24:06.058Z,46.70
2019-02-23T12:26:48.608Z,46.40
2019-02-23T12:29:33.990Z,47.10
2019-02-23T12:32:19.783Z,45.70
2019-02-23T12:35:10.796Z,44.60
2019-02-23T12:37:56.208Z,45.40
2019-02-23T12:40:41.669Z,46.00
2019-02-23T12:43:26.546Z,45.80
2019-02-23T12:46:11.862Z,45.90
2019-02-23T12:48:57.231Z,46.10
2019-02-23T12:51:43.604Z,46.00
2019-02-23T12:54:29.064Z,46.50
2019-02-23T12:57:16.002Z,47.00
2019-02-23T13:00:01.302Z,45.30
2019-02-23T13:02:46.606Z,43.60
2019-02-23T13:05:31.997Z,44.10
2019-02-23T13:08:17.203Z,44.70
2019-02-23T13:11:02.145Z,44.00
2019-02-23T13:13:54.055Z,44.60
2019-02-23T13:16:39.199Z,44.50
2019-02-23T13:19:47.965Z,43.90
2019-02-23T13:22:49.078Z,43.60
2019-02-23T13:25:44.354Z,43.50
2019-02-23T13:28:42.408Z,44.90
2019-02-23T13:31:49.274Z,44.90
2019-02-23T13:34:47.412Z,44.60
2019-02-23T13:37:57.326Z,44.30
2019-02-23T13:40:48.850Z,44.10
2019-02-23T13:43:50.178Z,42.60
2019-02-23T13:46:44.490Z,43.10
2019-02-23T13:50:03.745Z,43.60
2019-02-23T13:53:04.144Z,43.90
2019-02-23T13:56:08.261Z,43.80
2019-02-23T13:58:57.031Z,42.40
2019-02-23T14:02:01.279Z,41.70
2019-02-23T14:05:01.881Z,42.10
2019-02-23T14:08:02.753Z,43.10
2019-02-23T14:11:10.843Z,43.10
2019-02-23T14:14:17.597Z,42.80
2019-02-23T14:17:21.342Z,43.40
2019-02-23T14:20:30.890Z,43.20
2019-02-23T14:23:31.079Z,42.70
2019-02-23T14:26:31.369Z,43.10
2019-02-23T14:29:25.792Z,43.50
2019-02-23T14:32:17.540Z,44.00
2019-02-23T14:35:06.659Z,43.40
2019-02-23T14:38:10.641Z,43.40
2019-02-23T14:41:04.801Z,43.00
2019-02-23T14:44:12.072Z,42.90
2019-02-23T14:47:28.812Z,43.50
2019-02-23T14:50:37.464Z,44.30
2019-02-23T14:53:39.153Z,45.00
2019-02-23T14:56:50.641Z,45.30
2019-02-23T14:59:57.987Z,45.70
2019-02-23T15:03:06.461Z,46.70
2019-02-23T15:06:04.345Z,46.60
2019-02-23T15:09:08.145Z,47.10
2019-02-23T15:11:56.721Z,46.70
2019-02-23T15:14:57.786Z,46.80
2019-02-23T15:17:48.974Z,46.60
2019-02-23T15:20:43.801Z,46.90
2019-02-23T15:23:38.546Z,46.40
2019-02-23T15:26:38.943Z,46.00
2019-02-23T15:29:37.248Z,46.00
2019-02-23T15:32:52.105Z,46.10
2019-02-23T15:35:46.785Z,46.30
2019-02-23T15:38:38.955Z,46.90
2019-02-23T15:41:50.740Z,46.80
2019-02-23T15:45:00.531Z,46.80
2019-02-23T15:48:04.911Z,47.30
2019-02-23T15:50:50.417Z,47.50
2019-02-23T15:53:35.433Z,47.50
2019-02-23T15:56:20.791Z,48.30
2019-02-23T15:59:05.873Z,48.00
2019-02-23T16:01:50.858Z,48.50
2019-02-23T16:04:35.925Z,48.60
2019-02-23T16:07:23.202Z,49.00
2019-02-23T16:10:08.662Z,49.20
2019-02-23T16:12:53.844Z,49.50
2019-02-23T16:15:39.019Z,49.90
2019-02-23T16:18:24.271Z,50.50
2019-02-23T16:21:09.242Z,50.30
2019-02-23T16:23:56.494Z,50.50
2019-02-23T16:26:42.185Z,50.70
2019-02-23T16:29:27.855Z,51.00
2019-02-23T16:32:12.680Z,51.30
2019-02-23T16:34:57.496Z,51.60
2019-02-23T16:37:42.567Z,51.80
2019-02-23T16:40:27.864Z,51.90
2019-02-23T16:43:13.950Z,52.20
2019-02-23T16:45:59.050Z,52.30
2019-02-23T16:48:44.435Z,52.70
2019-02-23T16:51:29.615Z,53.00
2019-02-23T16:54:15.258Z,53.60
2019-02-23T16:57:00.543Z,53.20
2019-02-23T16:59:45.791Z,53.30
2019-02-23T17:02:31.034Z,53.50
2019-02-23T17:05:16.351Z,53.70
2019-02-23T17:08:01.997Z,54.20
2019-02-23T17:10:47.374Z,54.40
2019-02-23T17:13:32.563Z,54.70
2019-02-23T17:16:18.065Z,54.70
2019-02-23T17:19:04.388Z,54.80
2019-02-23T17:21:49.913Z,54.80
2019-02-23T17:24:35.216Z,55.10
2019-02-23T17:27:20.750Z,55.30
2019-02-23T17:30:08.459Z,55.70
2019-02-23T17:33:13.452Z,56.20
2019-02-23T17:35:59.572Z,56.20
2019-02-23T17:38:45.412Z,56.60
2019-02-23T17:41:31.177Z,56.20
2019-02-23T17:44:16.191Z,56.50
2019-02-23T17:47:01.619Z,56.60
2019-02-23T17:49:47.542Z,57.10
2019-02-23T17:52:33.562Z,56.80
2019-02-23T17:55:18.424Z,57.10
2019-02-23T17:58:03.753Z,57.10
2019-02-23T18:00:51.852Z,57.10
2019-02-23T18:03:40.192Z,57.40
2019-02-23T18:06:25.265Z,57.10
2019-02-23T18:09:11.742Z,57.30
2019-02-23T18:11:59.389Z,57.30
2019-02-23T18:14:47.468Z,57.40
2019-02-23T18:17:34.989Z,57.50
2019-02-23T18:20:24.910Z,57.60
2019-02-23T18:23:12.383Z,58.10
2019-02-23T18:25:59.189Z,58.10
2019-02-23T18:28:47.855Z,58.70
2019-02-23T18:31:33.555Z,58.40
2019-02-23T18:34:21.274Z,58.40
2019-02-23T18:37:08.499Z,58.50
2019-02-23T18:39:55.942Z,58.60
2019-02-23T18:42:41.007Z,58.70
2019-02-23T18:45:26.700Z,58.70
2019-02-23T18:48:11.343Z,58.70
2019-02-23T18:50:56.621Z,58.60
2019-02-23T18:53:42.201Z,58.90
2019-02-23T18:56:29.668Z,59.10
2019-02-23T18:59:15.274Z,58.70
2019-02-23T19:02:00.594Z,59.30
2019-02-23T19:04:46.071Z,59.20
2019-02-23T19:07:30.878Z,58.80
2019-02-23T19:10:16.518Z,59.10
2019-02-23T19:13:08.605Z,58.90
2019-02-23T19:15:54.477Z,58.80
2019-02-23T19:18:39.476Z,58.40
2019-02-23T19:21:24.643Z,58.70
2019-02-23T19:24:10.173Z,58.50
2019-02-23T19:26:56.712Z,58.90
2019-02-23T19:29:41.936Z,59.00
2019-02-23T19:32:27.194Z,58.90
2019-02-23T19:35:12.373Z,59.00
2019-02-23T19:37:58.761Z,59.20
2019-02-23T19:40:43.980Z,58.90
2019-02-23T19:43:29.259Z,59.50
2019-02-23T19:46:14.217Z,59.80
2019-02-23T19:48:59.402Z,59.80
2019-02-23T19:51:45.063Z,59.60
2019-02-23T19:54:30.257Z,59.80
2019-02-23T19:57:16.253Z,59.80
2019-02-23T20:00:01.670Z,60.00
2019-02-23T20:02:46.626Z,59.70
2019-02-23T20:05:32.446Z,59.80
2019-02-23T20:08:19.117Z,59.60
2019-02-23T20:11:04.425Z,59.30
2019-02-23T20:13:49.410Z,59.40
2019-02-23T20:16:35.380Z,59.90
2019-02-23T20:19:20.733Z,59.20
2019-02-23T20:22:05.963Z,59.50
2019-02-23T20:24:50.942Z,59.00
2019-02-23T20:27:36.316Z,58.80
2019-02-23T20:30:21.698Z,59.00
2019-02-23T20:33:06.632Z,58.70
2019-02-23T20:35:52.138Z,58.30
2019-02-23T20:38:37.224Z,58.30
2019-02-23T20:41:23.457Z,58.30
2019-02-23T20:44:08.704Z,58.20
2019-02-23T20:46:54.843Z,58.20
2019-02-23T20:49:40.104Z,58.20
2019-02-23T20:52:25.783Z,58.40
2019-02-23T20:55:10.818Z,58.50
2019-02-23T20:57:57.374Z,58.40
2019-02-23T21:00:42.719Z,58.60
2019-02-23T21:03:27.599Z,58.70
2019-02-23T21:06:13.207Z,58.90
2019-02-23T21:08:58.343Z,58.90
2019-02-23T21:11:43.871Z,58.60
2019-02-23T21:14:29.228Z,58.60
2019-02-23T21:17:14.355Z,58.50
2019-02-23T21:19:59.992Z,58.30
2019-02-23T21:22:45.781Z,57.90
2019-02-23T21:25:31.388Z,58.10
2019-02-23T21:28:19.342Z,58.20
2019-02-23T21:31:04.807Z,58.30
2019-02-23T21:33:49.868Z,57.90
2019-02-23T21:36:35.300Z,57.70
2019-02-23T21:39:20.552Z,57.70
2019-02-23T21:42:08.324Z,57.60
2019-02-23T21:44:53.318Z,57.40
2019-02-23T21:47:38.919Z,57.30
2019-02-23T21:50:24.512Z,57.30
2019-02-23T21:53:09.858Z,57.40
2019-02-23T21:55:54.942Z,57.40
2019-02-23T21:59:01.748Z,57.50
2019-02-23T22:01:46.920Z,57.80
2019-02-23T22:04:33.133Z,57.70
2019-02-23T22:07:20.016Z,57.80
2019-02-23T22:10:07.119Z,57.90
2019-02-23T22:12:52.683Z,57.80
2019-02-23T22:15:37.672Z,58.10
2019-02-23T22:18:23.079Z,58.10
2019-02-23T22:21:08.229Z,58.30
2019-02-23T22:23:53.861Z,58.10
2019-02-23T22:26:38.791Z,58.20
2019-02-23T22:29:26.576Z,58.20
2019-02-23T22:32:11.460Z,58.40
2019-02-23T22:34:56.643Z,58.50
2019-02-23T22:37:44.185Z,58.20
2019-02-23T22:40:29.530Z,58.30
2019-02-23T22:43:17.192Z,58.30
2019-02-23T22:46:03.067Z,58.20
2019-02-23T22:48:48.279Z,58.00
2019-02-23T22:51:33.641Z,57.80
2019-02-23T22:54:18.735Z,57.60
2019-02-23T22:57:05.515Z,57.60
2019-02-23T22:59:53.004Z,57.30
2019-02-23T23:02:40.305Z,57.40
2019-02-23T23:05:25.792Z,57.70
2019-02-23T23:08:11.111Z,57.60
2019-02-23T23:10:56.492Z,57.40
2019-02-23T23:13:41.845Z,57.40
2019-02-23T23:16:26.985Z,57.20
2019-02-23T23:19:12.984Z,57.30
2019-02-23T23:21:59.985Z,57.50
2019-02-23T23:24:45.226Z,57.20
2019-02-23T23:27:30.780Z,57.10
2019-02-23T23:30:15.704Z,57.40
2019-02-23T23:33:01.335Z,57.40
2019-02-23T23:35:46.556Z,57.50
2019-02-23T23:38:31.718Z,57.40
2019-02-23T23:41:16.782Z,57.30
2019-02-23T23:44:02.071Z,57.30
2019-02-23T23:46:47.718Z,57.60
2019-02-23T23:49:32.626Z,57.60
2019-02-23T23:52:17.780Z,57.30
2019-02-23T23:55:24.741Z,57.40
2019-02-23T23:58:10.879Z,57.60
